This is the latest recevied weather packets stored in our database for station/object K9ABJ. If no packets are shown the sender has not sent any weather packets the latest 10 day(s).
| Time | Temp. | Humidity | Pressure | Rain* | Wind** | Luminosity | Snow |
|---|---|---|---|---|---|---|---|
| 1787962976 | 22.78° C | 70% | 1020.1 hPa | 0 mm | - | 0 W/m² | - |
| 1787962675 | 23.33° C | 70% | 1020 hPa | 0 mm | - | 0 W/m² | - |
| 1787962370 | 23.33° C | 69% | 1019.8 hPa | 0 mm | - | 2 W/m² | - |
| 1787962064 | 23.89° C | 66% | 1019.9 hPa | 0 mm | - | 5 W/m² | - |
| 1787961758 | 23.89° C | 64% | 1020.1 hPa | 0 mm | - | 9 W/m² | - |
| 1787961457 | 24.44° C | 65% | 1019.9 hPa | 0 mm | - | 12 W/m² | - |
| 1787961157 | 24.44° C | 65% | 1020 hPa | 0 mm | - | 16 W/m² | - |
| 1787960856 | 24.44° C | 63% | 1019.8 hPa | 0 mm | - | 18 W/m² | - |
| 1787960557 | 25° C | 64% | 1019.9 hPa | 0 mm | - | 22 W/m² | - |
| 1787960255 | 25° C | 63% | 1019.9 hPa | 0 mm | - | 27 W/m² | - |
| 1787959955 | 25° C | 62% | 1020.2 hPa | 0 mm | - | 29 W/m² | - |
| 1787959650 | 25.56° C | 60% | 1020.1 hPa | 0 mm | - | 39 W/m² | - |
| 1787959350 | 25.56° C | 59% | 1020 hPa | 0 mm | - | 45 W/m² | - |
| 1787959045 | 25.56° C | 57% | 1020.3 hPa | 0 mm | - | 50 W/m² | - |
| 1787958740 | 26.11° C | 56% | 1020.2 hPa | 0 mm | - | 55 W/m² | - |
| 1787958436 | 25.56° C | 55% | 1020.2 hPa | 0 mm | - | 61 W/m² | - |
| 1787958132 | 26.67° C | 56% | 1020.4 hPa | 0 mm | - | 103 W/m² | - |
| 1787957831 | 26.67° C | 55% | 1020.4 hPa | 0 mm | - | 110 W/m² | - |
| 1787957530 | 26.67° C | 53% | 1020.4 hPa | 0 mm | - | 115 W/m² | - |
| 1787957226 | 26.67° C | 55% | 1020.4 hPa | 0 mm | - | 122 W/m² | - |
| 1787956921 | 26.11° C | 56% | 1020.2 hPa | 0 mm | - | 113 W/m² | - |
| 1787956621 | 26.67° C | 54% | 1020.4 hPa | 0 mm | - | 153 W/m² | - |
| 1787956315 | 26.67° C | 53% | 1020.4 hPa | 0 mm | - | 160 W/m² | - |
| 1787956011 | 26.67° C | 52% | 1020.3 hPa | 0 mm | - | 158 W/m² | - |
| 1787955706 | 26.67° C | 53% | 1020.5 hPa | 0 mm | - | 157 W/m² | - |
* Rain latest hour (hover to see other rain measurements)
** Current wind speed in m/s (hover to see current wind gust speed)